createdAt,value
2022-08-16T00:01:24.437Z,9.90
2022-08-16T00:03:53.785Z,10.50
2022-08-16T00:06:22.367Z,11.10
2022-08-16T00:08:52.413Z,12.20
2022-08-16T00:11:21.560Z,10.90
2022-08-16T00:13:54.000Z,10.85
2022-08-16T00:17:01.220Z,9.77
2022-08-16T00:19:18.922Z,10.05
2022-08-16T00:24:31.381Z,11.40
2022-08-16T00:27:02.827Z,12.95
2022-08-16T00:29:30.469Z,11.97
2022-08-16T00:32:05.386Z,12.10
2022-08-16T00:34:52.318Z,11.90
2022-08-16T00:37:25.175Z,10.77
2022-08-16T00:40:34.467Z,9.35
2022-08-16T00:43:26.468Z,9.98
2022-08-16T00:46:35.365Z,10.23
2022-08-16T00:49:17.483Z,10.65
2022-08-16T00:51:55.054Z,11.80
2022-08-16T00:54:27.068Z,12.73
2022-08-16T00:57:00.158Z,16.50
2022-08-16T00:59:32.769Z,11.10
2022-08-16T01:02:30.680Z,15.77
2022-08-16T01:05:09.619Z,11.85
2022-08-16T01:07:51.750Z,11.30
2022-08-16T01:10:31.508Z,12.07
2022-08-16T01:13:15.264Z,13.75
2022-08-16T01:15:53.659Z,11.63
2022-08-16T01:18:39.068Z,12.65
2022-08-16T01:21:22.626Z,13.18
2022-08-16T01:24:01.544Z,11.38
2022-08-16T01:26:34.280Z,10.13
2022-08-16T01:29:09.888Z,10.23
2022-08-16T01:31:42.551Z,10.75
2022-08-16T01:34:22.770Z,10.43
2022-08-16T01:37:19.365Z,10.15
2022-08-16T01:39:48.950Z,11.18
2022-08-16T01:42:16.660Z,11.52
2022-08-16T01:44:47.597Z,11.55
2022-08-16T01:47:19.806Z,11.70
2022-08-16T01:50:43.274Z,11.15
2022-08-16T01:52:36.166Z,11.40
2022-08-16T01:55:07.124Z,12.90
2022-08-16T01:57:35.565Z,12.88
2022-08-16T02:00:19.595Z,12.90
2022-08-16T02:02:52.072Z,13.15
2022-08-16T02:05:20.156Z,14.20
2022-08-16T02:07:52.212Z,13.73
2022-08-16T02:10:21.105Z,13.90
2022-08-16T02:12:51.311Z,14.43
2022-08-16T02:15:25.412Z,15.00
2022-08-16T02:17:54.448Z,15.73
2022-08-16T02:20:26.064Z,14.00
2022-08-16T02:22:55.514Z,15.82
2022-08-16T02:25:24.135Z,15.02
2022-08-16T02:27:51.803Z,15.80
2022-08-16T02:30:35.946Z,14.32
2022-08-16T02:33:06.204Z,16.92
2022-08-16T02:35:34.693Z,18.10
2022-08-16T02:38:21.845Z,17.08
2022-08-16T02:40:49.503Z,18.95
2022-08-16T02:43:17.096Z,18.42
2022-08-16T02:45:44.660Z,18.70
2022-08-16T02:48:30.302Z,19.10
2022-08-16T02:51:10.393Z,19.10
2022-08-16T02:53:43.822Z,19.55
2022-08-16T02:56:14.623Z,20.40
2022-08-16T02:58:43.992Z,19.38
2022-08-16T03:01:24.585Z,20.65
2022-08-16T03:04:39.374Z,20.02
2022-08-16T03:06:56.611Z,20.13
2022-08-16T03:09:28.548Z,19.60
2022-08-16T03:11:57.488Z,21.13
2022-08-16T03:14:25.724Z,21.10
2022-08-16T03:16:59.964Z,21.02
2022-08-16T03:19:46.979Z,22.23
2022-08-16T03:22:19.185Z,21.38
2022-08-16T03:24:57.960Z,21.50
2022-08-16T03:27:30.577Z,21.52
2022-08-16T03:30:16.361Z,22.30
2022-08-16T03:32:51.138Z,19.58
2022-08-16T03:35:22.121Z,22.13
2022-08-16T03:38:03.189Z,22.90
2022-08-16T03:40:34.640Z,21.73
2022-08-16T03:43:20.599Z,21.85
2022-08-16T03:45:52.879Z,21.92
2022-08-16T03:48:36.349Z,22.15
2022-08-16T03:51:09.857Z,22.38
2022-08-16T03:53:40.834Z,23.88
2022-08-16T03:56:18.695Z,21.70
2022-08-16T03:58:50.708Z,21.50
2022-08-16T04:01:19.786Z,22.02
2022-08-16T04:03:47.236Z,22.35
2022-08-16T04:06:17.607Z,22.30
2022-08-16T04:08:45.352Z,21.75
2022-08-16T04:11:16.356Z,21.95
2022-08-16T04:14:01.619Z,22.23
2022-08-16T04:16:33.725Z,22.08
2022-08-16T04:19:04.380Z,22.95
2022-08-16T04:21:34.459Z,23.35
2022-08-16T04:24:03.351Z,23.07
2022-08-16T04:26:32.517Z,23.75
2022-08-16T04:29:14.970Z,24.27
2022-08-16T04:31:56.316Z,24.50
2022-08-16T04:34:28.036Z,23.38
2022-08-16T04:36:57.749Z,24.52
2022-08-16T04:39:37.084Z,24.52
2022-08-16T04:42:15.707Z,24.27
2022-08-16T04:44:54.169Z,23.05
2022-08-16T04:47:31.477Z,24.90
2022-08-16T04:49:59.584Z,24.65
2022-08-16T04:52:34.581Z,24.63
2022-08-16T04:55:31.936Z,24.60
2022-08-16T04:58:44.538Z,24.60
2022-08-16T05:00:54.949Z,23.95
2022-08-16T05:03:22.432Z,23.85
2022-08-16T05:05:58.922Z,23.70
2022-08-16T05:08:30.767Z,23.58
2022-08-16T05:11:01.367Z,23.27
2022-08-16T05:13:40.538Z,22.75
2022-08-16T05:16:19.872Z,22.38
2022-08-16T05:18:50.666Z,22.70
2022-08-16T05:21:20.848Z,22.85
2022-08-16T05:26:28.056Z,23.33
2022-08-16T05:28:57.287Z,22.23
2022-08-16T05:31:29.590Z,21.48
2022-08-16T05:34:03.731Z,20.30
2022-08-16T05:36:36.842Z,22.80
2022-08-16T05:39:09.432Z,20.65
2022-08-16T05:41:45.464Z,21.83
2022-08-16T05:44:22.426Z,22.77
2022-08-16T05:46:57.691Z,22.10
2022-08-16T05:49:39.319Z,22.55
2022-08-16T05:52:13.815Z,21.85
2022-08-16T05:54:47.550Z,21.90
2022-08-16T05:57:17.281Z,22.65
2022-08-16T05:59:47.386Z,24.52
2022-08-16T06:02:19.694Z,25.25
2022-08-16T06:04:47.546Z,23.73
2022-08-16T06:07:24.935Z,22.77
2022-08-16T06:09:59.692Z,23.63
2022-08-16T06:12:30.115Z,24.38
2022-08-16T06:15:01.761Z,24.13
2022-08-16T06:17:42.833Z,23.48
2022-08-16T06:20:24.088Z,23.13
2022-08-16T06:22:58.609Z,24.15
2022-08-16T06:25:36.008Z,22.48
2022-08-16T06:28:09.652Z,22.95
2022-08-16T06:30:43.912Z,22.80
2022-08-16T06:33:19.825Z,22.70
2022-08-16T06:35:55.223Z,21.08
2022-08-16T06:38:33.739Z,22.38
2022-08-16T06:41:06.855Z,22.60
2022-08-16T06:43:41.771Z,22.70
2022-08-16T06:46:31.361Z,23.20
2022-08-16T06:49:00.690Z,22.50
2022-08-16T06:51:46.385Z,22.02
2022-08-16T06:54:16.598Z,23.83
2022-08-16T06:56:44.137Z,21.48
2022-08-16T06:59:13.160Z,22.33
2022-08-16T07:01:45.072Z,21.83
2022-08-16T07:04:31.526Z,21.90
2022-08-16T07:06:59.808Z,21.23
2022-08-16T07:09:29.766Z,22.58
2022-08-16T07:12:03.512Z,21.88
2022-08-16T07:14:33.670Z,21.45
2022-08-16T07:17:03.343Z,22.77
2022-08-16T07:20:30.085Z,19.70
2022-08-16T07:22:37.459Z,21.40
2022-08-16T07:25:12.279Z,21.90
2022-08-16T07:27:41.058Z,25.67
2022-08-16T07:30:45.898Z,28.10
2022-08-16T07:33:00.425Z,25.63
2022-08-16T07:35:28.479Z,23.45
2022-08-16T07:37:56.216Z,23.83
2022-08-16T07:40:49.560Z,24.70
2022-08-16T07:43:12.748Z,25.48
2022-08-16T07:45:42.987Z,24.63
2022-08-16T07:48:11.863Z,24.77
2022-08-16T07:50:57.263Z,24.23
2022-08-16T07:53:30.110Z,23.42
2022-08-16T07:56:00.427Z,25.15
2022-08-16T07:58:34.753Z,25.13
2022-08-16T08:01:10.847Z,21.70
2022-08-16T08:03:47.728Z,21.75
2022-08-16T08:06:18.616Z,21.17
2022-08-16T08:08:50.405Z,19.75
2022-08-16T08:11:23.666Z,20.10
2022-08-16T08:13:53.462Z,20.98
2022-08-16T08:16:21.853Z,18.63
2022-08-16T08:19:02.562Z,17.65
2022-08-16T08:21:58.285Z,17.08
2022-08-16T08:24:22.456Z,15.97
2022-08-16T08:27:02.322Z,16.95
2022-08-16T08:29:36.828Z,17.80
2022-08-16T08:32:57.533Z,17.92
2022-08-16T08:35:03.277Z,18.52
2022-08-16T08:37:54.833Z,19.20
2022-08-16T08:40:24.549Z,18.45
2022-08-16T08:42:57.737Z,18.48
2022-08-16T08:45:48.211Z,19.17
2022-08-16T08:48:33.620Z,16.88
2022-08-16T08:51:04.912Z,17.27
2022-08-16T08:53:33.398Z,14.48
2022-08-16T08:56:23.753Z,16.00
2022-08-16T08:58:54.649Z,13.32
2022-08-16T09:01:36.785Z,13.70
2022-08-16T09:04:14.861Z,15.10
2022-08-16T09:06:45.457Z,15.80
2022-08-16T09:09:16.828Z,15.10
2022-08-16T09:11:50.910Z,16.60
2022-08-16T09:14:24.125Z,15.88
2022-08-16T09:19:40.942Z,16.35
2022-08-16T09:22:19.863Z,16.13
2022-08-16T09:24:52.275Z,15.75
2022-08-16T09:27:23.409Z,13.95
2022-08-16T09:30:00.452Z,13.38
2022-08-16T09:32:31.309Z,13.55
2022-08-16T09:35:01.492Z,14.70
2022-08-16T09:37:36.277Z,14.30
2022-08-16T09:40:32.075Z,13.10
2022-08-16T09:42:59.480Z,13.40
2022-08-16T09:45:29.002Z,13.23
2022-08-16T09:47:58.413Z,12.20
2022-08-16T09:50:37.255Z,14.13
2022-08-16T09:53:15.099Z,13.82
2022-08-16T09:55:49.249Z,12.95
2022-08-16T09:58:41.804Z,11.40
2022-08-16T10:01:11.224Z,12.75
2022-08-16T10:04:02.111Z,13.57
2022-08-16T10:06:33.851Z,12.82
2022-08-16T10:09:05.410Z,11.98
2022-08-16T10:11:53.835Z,11.45
2022-08-16T10:14:24.510Z,14.43
2022-08-16T10:17:04.099Z,13.90
2022-08-16T10:19:32.409Z,14.75
2022-08-16T10:22:05.161Z,16.30
2022-08-16T10:24:34.002Z,15.57
2022-08-16T10:27:25.643Z,11.20
2022-08-16T10:30:00.055Z,12.18
2022-08-16T10:32:32.216Z,12.60
2022-08-16T10:35:04.506Z,15.35
2022-08-16T10:37:36.179Z,15.88
2022-08-16T10:40:29.189Z,14.07
2022-08-16T10:43:03.088Z,14.48
2022-08-16T10:45:38.786Z,14.23
2022-08-16T10:48:23.976Z,15.85
2022-08-16T10:51:00.873Z,15.77
2022-08-16T10:53:32.535Z,16.65
2022-08-16T10:56:52.218Z,16.73
2022-08-16T10:58:57.202Z,14.93
2022-08-16T11:01:43.929Z,16.63
2022-08-16T11:07:08.069Z,16.63
2022-08-16T11:09:43.808Z,17.42
2022-08-16T11:12:23.355Z,18.38
2022-08-16T11:17:45.032Z,18.67
2022-08-16T11:23:05.454Z,20.38
2022-08-16T11:31:10.240Z,21.05
2022-08-16T11:36:25.131Z,19.90
2022-08-16T11:38:58.807Z,17.77
2022-08-16T11:41:29.516Z,15.35
2022-08-16T11:44:01.095Z,16.13
2022-08-16T11:46:45.209Z,16.63
2022-08-16T11:49:14.486Z,17.67
2022-08-16T11:51:46.496Z,16.10
2022-08-16T11:54:20.992Z,17.33
2022-08-16T11:56:57.432Z,17.13
2022-08-16T11:59:29.201Z,18.70
2022-08-16T12:01:59.824Z,17.48
2022-08-16T12:04:32.462Z,19.85
2022-08-16T12:07:05.900Z,20.20
2022-08-16T12:09:33.965Z,17.77
2022-08-16T12:12:09.153Z,18.58
2022-08-16T12:14:37.041Z,15.93
2022-08-16T12:17:06.687Z,17.50
2022-08-16T12:19:36.171Z,19.67
2022-08-16T12:22:05.514Z,14.80
2022-08-16T12:24:47.824Z,13.50
2022-08-16T12:27:18.728Z,12.73
2022-08-16T12:29:46.198Z,16.52
2022-08-16T12:32:38.452Z,17.48
2022-08-16T12:35:01.808Z,16.73
2022-08-16T12:37:30.561Z,15.25
2022-08-16T12:39:59.024Z,15.20
2022-08-16T12:42:34.486Z,16.63
2022-08-16T12:45:06.024Z,15.73
2022-08-16T12:48:00.933Z,14.02
2022-08-16T12:50:40.491Z,15.55
2022-08-16T12:53:07.973Z,13.00
2022-08-16T12:55:41.792Z,8.80
2022-08-16T12:58:14.222Z,8.20
2022-08-16T13:00:57.787Z,7.63
2022-08-16T13:03:25.920Z,8.73
2022-08-16T13:05:55.918Z,8.95
2022-08-16T13:08:30.826Z,9.48
2022-08-16T13:11:01.839Z,7.57
2022-08-16T13:13:29.729Z,7.75
2022-08-16T13:16:00.857Z,7.32
2022-08-16T13:18:33.766Z,7.18
2022-08-16T13:21:07.757Z,7.57
2022-08-16T13:23:43.350Z,7.03
2022-08-16T13:26:12.817Z,6.05
2022-08-16T13:28:46.224Z,6.20
2022-08-16T13:31:16.889Z,6.55
2022-08-16T13:33:45.380Z,5.68
2022-08-16T13:39:01.581Z,5.78
2022-08-16T13:41:30.350Z,5.45
2022-08-16T13:44:00.460Z,5.53
2022-08-16T13:46:30.237Z,5.38
2022-08-16T13:48:58.415Z,5.90
2022-08-16T13:51:29.032Z,5.88
2022-08-16T13:54:03.331Z,6.10
2022-08-16T13:56:37.553Z,7.53
2022-08-16T13:59:19.357Z,6.20
2022-08-16T14:04:26.349Z,4.47
2022-08-16T14:06:59.184Z,4.03
2022-08-16T14:09:30.284Z,4.13
2022-08-16T14:12:01.015Z,3.92
2022-08-16T14:14:32.359Z,3.83
2022-08-16T14:17:02.168Z,6.45
2022-08-16T14:19:30.075Z,6.37
2022-08-16T14:22:13.488Z,6.90
2022-08-16T14:24:47.415Z,5.97
2022-08-16T14:27:21.176Z,5.78
2022-08-16T14:29:51.215Z,5.97
2022-08-16T14:32:33.664Z,5.72
2022-08-16T14:35:49.397Z,6.32
2022-08-16T14:38:23.938Z,4.80
2022-08-16T14:40:54.949Z,4.35
2022-08-16T14:43:24.969Z,5.05
2022-08-16T14:45:54.863Z,4.95
2022-08-16T14:48:26.290Z,4.38
2022-08-16T14:50:55.212Z,3.80
2022-08-16T14:53:24.394Z,4.22
2022-08-16T14:55:52.281Z,3.97
2022-08-16T14:58:20.234Z,4.40
2022-08-16T15:00:57.827Z,4.88
2022-08-16T15:03:25.972Z,5.05
2022-08-16T15:05:54.294Z,5.10
2022-08-16T15:08:21.795Z,4.18
2022-08-16T15:11:07.868Z,4.53
2022-08-16T15:13:36.006Z,4.82
2022-08-16T15:16:04.810Z,4.68
2022-08-16T15:18:33.564Z,5.10
2022-08-16T15:21:03.976Z,5.43
2022-08-16T15:23:33.906Z,6.05
2022-08-16T15:26:04.045Z,6.05
2022-08-16T15:28:33.692Z,6.27
2022-08-16T15:31:03.798Z,6.53
2022-08-16T15:33:34.818Z,6.82
2022-08-16T15:36:04.543Z,7.25
2022-08-16T15:38:57.481Z,8.27
2022-08-16T15:41:38.937Z,8.65
2022-08-16T15:44:14.757Z,8.02
2022-08-16T15:46:55.010Z,7.95
2022-08-16T15:49:34.803Z,6.85
2022-08-16T15:52:06.423Z,6.40
2022-08-16T15:54:34.230Z,7.90
2022-08-16T15:57:11.050Z,7.05
2022-08-16T15:59:48.753Z,7.68
2022-08-16T16:02:27.219Z,8.25
2022-08-16T16:04:55.394Z,8.48
2022-08-16T16:07:22.936Z,8.25
2022-08-16T16:09:53.224Z,8.25
2022-08-16T16:12:51.630Z,10.35
2022-08-16T16:15:09.161Z,8.70
2022-08-16T16:17:36.546Z,7.97
2022-08-16T16:20:05.133Z,8.40
2022-08-16T16:22:35.636Z,7.65
2022-08-16T16:25:04.952Z,7.65
2022-08-16T16:27:32.326Z,8.43
2022-08-16T16:30:03.395Z,9.40
2022-08-16T16:32:50.737Z,9.20
2022-08-16T16:35:18.608Z,10.02
2022-08-16T16:37:46.489Z,10.18
2022-08-16T16:40:16.929Z,9.00
2022-08-16T16:42:56.550Z,9.35
2022-08-16T16:45:25.736Z,8.18
2022-08-16T16:48:12.283Z,8.70
2022-08-16T16:50:44.490Z,7.32
2022-08-16T16:53:16.687Z,7.80
2022-08-16T16:55:52.231Z,7.70
2022-08-16T16:58:40.579Z,7.28
2022-08-16T17:01:10.975Z,7.13
2022-08-16T17:03:38.994Z,7.18
2022-08-16T17:06:09.351Z,6.53
2022-08-16T17:08:40.753Z,6.57
2022-08-16T17:11:09.817Z,6.85
2022-08-16T17:13:38.608Z,7.65
2022-08-16T17:16:07.875Z,7.75
2022-08-16T17:19:16.976Z,8.00
2022-08-16T17:21:24.963Z,7.80
2022-08-16T17:23:58.200Z,7.63
2022-08-16T17:26:30.846Z,8.07
2022-08-16T17:29:10.925Z,9.25
2022-08-16T17:31:41.132Z,9.10
2022-08-16T17:34:29.402Z,8.18
2022-08-16T17:37:05.369Z,8.00
2022-08-16T17:39:54.854Z,8.40
2022-08-16T17:42:25.784Z,8.18
2022-08-16T17:44:54.575Z,8.07
2022-08-16T17:47:22.878Z,7.95
2022-08-16T17:49:50.285Z,8.23
2022-08-16T17:52:17.827Z,8.50
2022-08-16T17:54:45.525Z,8.52
2022-08-16T17:57:13.499Z,8.77
2022-08-16T17:59:44.343Z,8.43
2022-08-16T18:02:43.866Z,8.50
2022-08-16T18:05:00.346Z,8.02
2022-08-16T18:07:27.841Z,9.00
2022-08-16T18:09:55.325Z,9.30
2022-08-16T18:12:44.685Z,8.35
2022-08-16T18:15:13.285Z,8.63
2022-08-16T18:17:42.073Z,8.05
2022-08-16T18:20:29.689Z,9.82
2022-08-16T18:23:15.377Z,9.57
2022-08-16T18:25:52.020Z,8.50
2022-08-16T18:28:20.743Z,8.23
2022-08-16T18:30:54.271Z,8.38
2022-08-16T18:33:26.722Z,8.10
2022-08-16T18:35:57.759Z,8.07
2022-08-16T18:38:25.711Z,10.00
2022-08-16T18:40:53.672Z,8.38
2022-08-16T18:43:59.159Z,8.85
2022-08-16T18:46:10.952Z,8.50
2022-08-16T18:48:38.479Z,11.38
2022-08-16T18:51:10.264Z,10.52
2022-08-16T18:53:39.459Z,10.13
2022-08-16T18:56:07.096Z,10.73
2022-08-16T18:58:34.568Z,10.27
2022-08-16T19:01:02.096Z,11.27
2022-08-16T19:03:32.449Z,10.85
2022-08-16T19:06:13.846Z,11.85
2022-08-16T19:08:45.569Z,10.93
2022-08-16T19:11:18.935Z,11.10
2022-08-16T19:13:46.544Z,10.68
2022-08-16T19:16:14.603Z,11.07
2022-08-16T19:18:42.338Z,10.88
2022-08-16T19:21:14.439Z,10.32
2022-08-16T19:23:43.451Z,10.13
2022-08-16T19:26:25.677Z,9.23
2022-08-16T19:28:58.554Z,9.75
2022-08-16T19:31:31.189Z,10.52
2022-08-16T19:34:00.880Z,11.00
2022-08-16T19:36:35.126Z,10.25
2022-08-16T19:39:10.311Z,10.85
2022-08-16T19:41:46.082Z,11.68
2022-08-16T19:44:13.796Z,12.60
2022-08-16T19:46:46.496Z,11.38
2022-08-16T19:49:16.177Z,12.13
2022-08-16T19:51:45.987Z,12.37
2022-08-16T19:54:13.722Z,11.80
2022-08-16T19:56:41.143Z,12.02
2022-08-16T19:59:39.679Z,11.63
2022-08-16T20:01:56.332Z,11.90
2022-08-16T20:04:24.589Z,11.52
2022-08-16T20:06:53.225Z,11.68
2022-08-16T20:09:24.542Z,12.05
2022-08-16T20:11:52.901Z,14.02
2022-08-16T20:14:25.118Z,13.93
2022-08-16T20:16:59.305Z,19.73
2022-08-16T20:19:28.722Z,19.20
2022-08-16T20:21:57.503Z,15.77
2022-08-16T20:24:35.680Z,16.48
2022-08-16T20:27:06.307Z,16.10
2022-08-16T20:29:34.783Z,16.23
2022-08-16T20:32:03.546Z,15.05
2022-08-16T20:34:31.135Z,15.35
2022-08-16T20:36:58.524Z,17.27
2022-08-16T20:39:26.370Z,14.93
2022-08-16T20:44:39.804Z,16.15
2022-08-16T20:47:08.574Z,16.08
2022-08-16T20:49:37.193Z,13.40
2022-08-16T20:52:09.720Z,14.48
2022-08-16T20:54:38.033Z,14.95
2022-08-16T20:57:06.165Z,13.65
2022-08-16T20:59:33.653Z,14.05
2022-08-16T21:02:01.144Z,13.02
2022-08-16T21:04:29.838Z,13.05
2022-08-16T21:06:59.263Z,12.80
2022-08-16T21:09:29.055Z,13.50
2022-08-16T21:11:57.724Z,13.85
2022-08-16T21:14:25.156Z,12.82
2022-08-16T21:16:53.169Z,13.95
2022-08-16T21:19:21.011Z,13.88
2022-08-16T21:21:48.564Z,14.43
2022-08-16T21:24:16.948Z,13.57
2022-08-16T21:26:55.223Z,15.60
2022-08-16T21:29:37.807Z,15.82
2022-08-16T21:32:13.847Z,17.17
2022-08-16T21:34:42.522Z,17.88
2022-08-16T21:37:10.662Z,18.23
2022-08-16T21:39:39.157Z,18.48
2022-08-16T21:42:11.525Z,19.42
2022-08-16T21:44:39.520Z,19.55
2022-08-16T21:47:08.111Z,20.40
2022-08-16T21:49:37.381Z,19.10
2022-08-16T21:52:07.003Z,18.30
2022-08-16T21:54:34.858Z,17.63
2022-08-16T21:57:04.725Z,17.23
2022-08-16T21:59:34.912Z,17.83
2022-08-16T22:02:02.383Z,17.40
2022-08-16T22:04:37.413Z,18.02
2022-08-16T22:07:06.967Z,16.80
2022-08-16T22:09:34.724Z,17.70
2022-08-16T22:12:02.138Z,17.33
2022-08-16T22:14:29.605Z,17.90
2022-08-16T22:16:57.100Z,19.38
2022-08-16T22:19:24.709Z,19.65
2022-08-16T22:21:52.846Z,19.60
2022-08-16T22:24:20.250Z,19.23
2022-08-16T22:26:47.797Z,18.52
2022-08-16T22:29:15.257Z,19.67
2022-08-16T22:31:44.163Z,20.50
2022-08-16T22:34:12.252Z,20.20
2022-08-16T22:36:39.716Z,18.85
2022-08-16T22:39:14.077Z,19.67
2022-08-16T22:41:43.318Z,20.00
2022-08-16T22:44:11.274Z,20.42
2022-08-16T22:46:38.991Z,21.23
2022-08-16T22:49:07.177Z,21.23
2022-08-16T22:51:36.584Z,22.40
2022-08-16T22:54:34.298Z,20.98
2022-08-16T22:56:56.515Z,21.42
2022-08-16T22:59:25.219Z,21.25
2022-08-16T23:01:54.004Z,21.00
2022-08-16T23:04:22.671Z,22.65
2022-08-16T23:06:50.352Z,22.10
2022-08-16T23:09:18.298Z,23.05
2022-08-16T23:11:45.819Z,22.98
2022-08-16T23:14:13.344Z,24.02
2022-08-16T23:17:02.866Z,24.10
2022-08-16T23:19:30.315Z,24.27
2022-08-16T23:21:58.019Z,23.60
2022-08-16T23:24:25.486Z,24.63
2022-08-16T23:26:52.907Z,24.27
2022-08-16T23:29:25.403Z,24.58
2022-08-16T23:32:09.123Z,24.73
2022-08-16T23:34:36.773Z,22.13
2022-08-16T23:37:04.481Z,22.77
2022-08-16T23:39:31.976Z,23.25
2022-08-16T23:41:59.667Z,24.90
2022-08-16T23:44:55.800Z,24.10
2022-08-16T23:47:14.804Z,24.48
2022-08-16T23:49:56.845Z,26.55
2022-08-16T23:52:42.094Z,24.05
2022-08-16T23:55:16.312Z,24.15
2022-08-16T23:57:46.095Z,26.58
